createdAt,value
2023-01-23T00:00:47.025Z,100910.41
2023-01-23T00:10:48.414Z,100915.19
2023-01-23T00:20:49.793Z,100912.50
2023-01-23T00:30:51.379Z,100912.06
2023-01-23T00:40:54.393Z,100908.44
2023-01-23T00:50:55.821Z,100917.56
2023-01-23T01:00:57.767Z,100921.34
2023-01-23T01:10:59.145Z,100934.56
2023-01-23T01:21:00.618Z,100948.06
2023-01-23T01:31:10.431Z,100944.41
2023-01-23T01:41:12.285Z,100944.63
2023-01-23T01:51:25.739Z,100941.66
2023-01-23T02:01:27.137Z,100952.66
2023-01-23T02:11:28.520Z,100959.28
2023-01-23T02:21:29.966Z,100960.25
2023-01-23T02:31:31.496Z,100957.59
2023-01-23T02:41:35.178Z,100957.63
2023-01-23T02:51:37.079Z,100948.06
2023-01-23T03:01:38.636Z,100963.59
2023-01-23T03:11:43.965Z,100962.09
2023-01-23T03:21:45.601Z,100956.03
2023-01-23T03:31:47.108Z,100954.09
2023-01-23T03:41:48.787Z,100971.09
2023-01-23T03:51:50.245Z,100961.25
2023-01-23T04:01:51.740Z,100971.66
2023-01-23T04:11:54.887Z,100968.69
2023-01-23T04:21:56.300Z,100961.13
2023-01-23T04:31:57.702Z,100950.56
2023-01-23T04:41:59.250Z,100974.50
2023-01-23T04:52:00.777Z,100974.31
2023-01-23T05:02:02.510Z,100977.44
2023-01-23T05:12:04.379Z,100974.72
2023-01-23T05:22:05.892Z,100983.47
2023-01-23T05:32:07.364Z,100978.06
2023-01-23T05:42:08.788Z,100999.22
2023-01-23T05:52:10.164Z,101005.84
2023-01-23T06:02:11.826Z,100999.63
2023-01-23T06:12:13.295Z,101000.31
2023-01-23T06:22:14.675Z,101005.78
2023-01-23T06:32:16.194Z,101033.16
2023-01-23T06:42:17.565Z,101043.59
2023-01-23T06:52:18.937Z,101068.44
2023-01-23T07:02:20.326Z,101080.16
2023-01-23T07:12:21.697Z,101097.78
2023-01-23T07:22:23.131Z,101107.53
2023-01-23T07:32:24.661Z,101116.03
2023-01-23T07:42:26.071Z,101130.13
2023-01-23T07:52:27.515Z,101118.69
2023-01-23T08:02:28.882Z,101123.75
2023-01-23T08:12:30.262Z,101119.22
2023-01-23T08:22:31.674Z,101130.50
2023-01-23T08:32:34.987Z,101126.84
2023-01-23T08:42:36.435Z,101138.13
2023-01-23T08:52:37.841Z,101143.22
2023-01-23T09:02:39.212Z,101135.16
2023-01-23T09:12:42.442Z,101142.78
2023-01-23T09:22:44.038Z,101150.53
2023-01-23T09:32:45.617Z,101150.53
2023-01-23T09:42:46.991Z,101165.34
2023-01-23T09:52:49.682Z,101170.59
2023-01-23T10:02:53.413Z,101178.03
2023-01-23T10:13:08.949Z,101183.25
2023-01-23T10:23:24.416Z,101175.78
2023-01-23T10:33:33.810Z,101187.91
2023-01-23T10:43:35.286Z,101181.25
2023-01-23T10:53:36.687Z,101181.09
2023-01-23T11:03:38.083Z,101185.19
2023-01-23T11:13:39.477Z,101180.22
2023-01-23T11:23:41.397Z,101161.41
2023-01-23T11:33:54.333Z,101159.16
2023-01-23T11:43:55.768Z,101138.06
2023-01-23T11:54:34.689Z,101128.84
2023-01-23T12:04:57.405Z,101122.03
2023-01-23T12:15:12.916Z,101132.78
2023-01-23T12:25:26.501Z,101143.38
2023-01-23T12:35:41.917Z,101140.84
2023-01-23T12:45:48.928Z,101132.78
2023-01-23T12:56:03.781Z,101124.59
2023-01-23T13:06:08.113Z,101148.59
2023-01-23T13:16:12.113Z,101152.56
2023-01-23T13:26:16.511Z,101149.41
2023-01-23T13:36:22.714Z,101164.28
2023-01-23T14:28:34.030Z,101175.31
2023-01-23T14:38:35.598Z,101176.97
2023-01-23T14:48:38.915Z,101173.63
2023-01-23T14:58:40.570Z,101181.78
2023-01-23T15:08:41.949Z,101186.88
2023-01-23T15:18:55.443Z,101190.38
2023-01-23T15:28:57.917Z,101190.53
2023-01-23T15:38:59.793Z,101175.41
2023-01-23T15:49:01.204Z,101184.28
2023-01-23T15:59:06.503Z,101189.75
2023-01-23T16:09:13.047Z,101178.72
2023-01-23T16:19:14.555Z,101185.94
2023-01-23T16:29:23.880Z,101181.00
2023-01-23T16:39:27.153Z,101165.50
2023-01-23T16:49:28.680Z,101162.31
2023-01-23T16:59:36.689Z,101162.16
2023-01-23T17:09:38.073Z,101163.69
2023-01-23T17:19:41.300Z,101172.25
2023-01-23T17:29:42.846Z,101175.31
2023-01-23T17:39:44.249Z,101184.06
2023-01-23T17:49:54.111Z,101183.31
2023-01-23T17:59:56.537Z,101184.97
2023-01-23T18:09:58.359Z,101175.41
2023-01-23T18:19:59.934Z,101177.69
2023-01-23T18:30:11.480Z,101173.19
2023-01-23T18:40:39.055Z,101169.38
2023-01-23T18:50:48.072Z,101170.09
2023-01-23T19:00:53.617Z,101160.19
2023-01-23T19:11:00.570Z,101171.06
2023-01-23T19:21:20.949Z,101176.03
2023-01-23T19:31:27.287Z,101194.78
2023-01-23T19:41:42.589Z,101211.84
2023-01-23T19:51:44.015Z,101232.44
2023-01-23T20:01:48.141Z,101239.75
2023-01-23T20:11:49.793Z,101243.38
2023-01-23T20:21:51.172Z,101244.50
2023-01-23T20:31:53.853Z,101253.78
2023-01-23T20:41:55.468Z,101254.59
2023-01-23T20:52:19.601Z,101261.34
2023-01-23T21:02:23.781Z,101252.22
2023-01-23T21:12:25.437Z,101253.50
2023-01-23T21:22:26.831Z,101239.38
2023-01-23T21:32:28.266Z,101234.56
2023-01-23T21:42:30.825Z,101227.13
2023-01-23T21:52:32.332Z,101224.50
2023-01-23T22:02:33.737Z,101228.75
2023-01-23T22:12:35.346Z,101220.00
2023-01-23T22:22:36.862Z,101236.13
2023-01-23T22:32:38.398Z,101219.63
2023-01-23T22:42:39.917Z,101231.31
2023-01-23T22:52:41.537Z,101219.91
2023-01-23T23:02:43.120Z,101228.34
2023-01-23T23:12:44.667Z,101226.09
2023-01-23T23:22:46.207Z,101232.03
2023-01-23T23:32:47.641Z,101229.34
2023-01-23T23:42:49.021Z,101231.31
2023-01-23T23:52:50.391Z,101223.53
